Airfield :
LOGIN :

Register | Disclaimer

   EN    FR    IT 

 










Legend :    VFR   Marginal VFR   IFR   Intensive IFR   Very Intensive IFR
Visi :
Ceiling :
>= 8 km
>= 3000ft
5 to 8 km
1000 to 3000 ft
1500m to 5 km
500 to 1000 ft
800 to 1500m
200 to 500 ft
< 800m
< 200 ft
Symbols :   Thunderstorms  Fog  Heavy snow  Heavy precipitations  Wind > 20 kt
SIGMETs :     Misc.  Thunderstorms  Icing  Turbulence  Mountain Waves  Volcanic Ashes






- Airport Elevation : 636 ft


EPLB - Lublin

CURRENT METAR :
  • 171130Z 23006KT 190V260 9999 BKN045 12/02 Q1002

EXPIRED METARs :
  • 171100Z 25008KT 9999 SCT044 11/02 Q1002
  • 171030Z 22007KT 9999 FEW035 11/03 Q1002
  • 171000Z 23008KT 9999 FEW032 11/03 Q1002
  • 170930Z VRB02KT CAVOK 10/04 Q1002
  • 170900Z VRB02KT CAVOK 10/03 Q1002
  • 170830Z 24003KT 220V280 CAVOK 09/03 Q1002
  • 170800Z 21004KT 140V230 CAVOK 09/03 Q1002
  • 170730Z 30004KT CAVOK 08/03 Q1002
  • 170700Z 21003KT 150V300 CAVOK 07/03 Q1002

TAF TAF EPLB
Valid from the 17 at 12:00 until the 18 at 12:00 UTC


171130Z 1712/1812 25007KT 9999 SCT040
TEMPO 1712/1720 SHRA BKN030CB
PROB30
TEMPO 1712/1718 VRB15G25KT 3000 TSRA
BECMG 1714/1717 34010KT
TEMPO 1802/1806 BKN007



MET'MAP, your aeronautical weather chart ! - Copyright ORBIFLY December 2007 - Disclaimer

ORBIFLY MET'MAP TEAM :

Programming & Development : Alexandra Zaïnal
Original concept : Baudouin d'Aumeries
Technical & hardware support : Manuel Goepfert
Assistance : Marc-Olivier Méhu




SOURCES & CREDITS :

   NOAA